createdAt,value
2018-10-03T00:00:29.543Z,991.46
2018-10-03T00:01:29.679Z,991.49
2018-10-03T00:02:29.828Z,991.41
2018-10-03T00:03:29.969Z,991.49
2018-10-03T00:04:30.151Z,991.47
2018-10-03T00:05:30.271Z,991.46
2018-10-03T00:06:30.431Z,991.50
2018-10-03T00:07:30.543Z,991.44
2018-10-03T00:08:30.681Z,991.46
2018-10-03T00:09:30.840Z,991.46
2018-10-03T00:10:30.970Z,991.49
2018-10-03T00:11:31.111Z,991.54
2018-10-03T00:12:31.251Z,991.52
2018-10-03T00:13:31.400Z,991.46
2018-10-03T00:14:31.574Z,991.36
2018-10-03T00:15:31.685Z,991.37
2018-10-03T00:16:31.833Z,991.39
2018-10-03T00:17:31.973Z,991.39
2018-10-03T00:18:32.119Z,991.37
2018-10-03T00:19:32.279Z,991.37
2018-10-03T00:20:32.419Z,991.40
2018-10-03T00:21:32.575Z,991.38
2018-10-03T00:22:32.697Z,991.41
2018-10-03T00:23:32.837Z,991.44
2018-10-03T00:24:33.001Z,991.45
2018-10-03T00:25:33.121Z,991.44
2018-10-03T00:26:33.263Z,991.41
2018-10-03T00:27:33.410Z,991.38
2018-10-03T00:28:33.554Z,991.37
2018-10-03T00:29:33.690Z,991.37
2018-10-03T00:30:33.829Z,991.41
2018-10-03T00:31:33.988Z,991.43
2018-10-03T00:32:34.109Z,991.41
2018-10-03T00:33:34.258Z,991.37
2018-10-03T00:34:34.388Z,991.41
2018-10-03T00:35:34.531Z,991.36
2018-10-03T00:36:34.687Z,991.43
2018-10-03T00:37:34.836Z,991.36
2018-10-03T00:38:34.969Z,991.34
2018-10-03T00:39:35.102Z,991.31
2018-10-03T00:40:35.279Z,991.28
2018-10-03T00:41:35.391Z,991.31
2018-10-03T00:42:35.528Z,991.29
2018-10-03T00:43:35.675Z,991.29
2018-10-03T00:44:35.819Z,991.29
2018-10-03T00:45:35.961Z,991.36
2018-10-03T00:46:36.102Z,991.32
2018-10-03T00:47:36.281Z,991.34
2018-10-03T00:48:36.389Z,991.34
2018-10-03T00:49:36.539Z,991.36
2018-10-03T00:50:36.685Z,991.37
2018-10-03T00:51:36.835Z,991.38
2018-10-03T00:52:36.991Z,991.43
2018-10-03T00:53:37.124Z,991.41
2018-10-03T00:54:37.289Z,991.42
2018-10-03T00:55:37.418Z,991.44
2018-10-03T00:56:37.575Z,991.44
2018-10-03T00:57:37.693Z,991.43
2018-10-03T00:58:37.838Z,991.42
2018-10-03T00:59:37.980Z,991.42
2018-10-03T01:00:38.125Z,991.43
2018-10-03T01:01:38.254Z,991.36
2018-10-03T01:02:38.401Z,991.38
2018-10-03T01:03:38.550Z,991.42
2018-10-03T01:04:38.691Z,991.43
2018-10-03T01:05:38.838Z,991.38
2018-10-03T01:06:38.979Z,991.40
2018-10-03T01:07:39.125Z,991.42
2018-10-03T01:08:39.266Z,991.37
2018-10-03T01:09:39.418Z,991.35
2018-10-03T01:10:39.594Z,991.31
2018-10-03T01:11:39.707Z,991.36
2018-10-03T01:12:39.848Z,991.38
2018-10-03T01:13:40.000Z,991.42
2018-10-03T01:14:40.146Z,991.46
2018-10-03T01:15:40.294Z,991.47
2018-10-03T01:16:40.439Z,991.48
2018-10-03T01:17:40.578Z,991.50
2018-10-03T01:18:40.724Z,991.52
2018-10-03T01:19:40.873Z,991.56
2018-10-03T01:20:41.019Z,991.60
2018-10-03T01:21:41.169Z,991.62
2018-10-03T01:22:41.318Z,991.57
2018-10-03T01:23:41.472Z,991.53
2018-10-03T01:24:41.607Z,991.64
2018-10-03T01:25:41.755Z,991.62
2018-10-03T01:26:41.903Z,991.54
2018-10-03T01:27:42.038Z,991.56
2018-10-03T01:28:42.187Z,991.53
2018-10-03T01:29:42.340Z,991.56
2018-10-03T01:30:42.495Z,991.55
2018-10-03T01:31:42.603Z,991.59
2018-10-03T01:32:42.743Z,991.57
2018-10-03T01:33:42.892Z,991.57
2018-10-03T01:34:43.039Z,991.55
2018-10-03T01:35:43.158Z,991.47
2018-10-03T01:36:43.313Z,991.47
2018-10-03T01:37:43.438Z,991.49
2018-10-03T01:38:43.594Z,991.48
2018-10-03T01:39:43.741Z,991.50
2018-10-03T01:40:43.885Z,991.48
2018-10-03T01:41:44.031Z,991.52
2018-10-03T01:42:44.185Z,991.55
2018-10-03T01:43:44.309Z,991.58
2018-10-03T01:44:44.450Z,991.53
2018-10-03T01:45:44.584Z,991.51
2018-10-03T01:46:44.720Z,991.55
2018-10-03T01:47:44.861Z,991.54
2018-10-03T01:48:44.993Z,991.56
2018-10-03T01:49:45.146Z,991.58
2018-10-03T01:50:45.294Z,991.57
2018-10-03T01:51:45.436Z,991.53
2018-10-03T01:52:45.614Z,991.48
2018-10-03T01:53:45.750Z,991.50
2018-10-03T01:54:45.897Z,991.46
2018-10-03T01:55:46.045Z,991.47
2018-10-03T01:56:46.210Z,991.46
2018-10-03T01:57:46.340Z,991.47
2018-10-03T01:58:46.498Z,991.48
2018-10-03T01:59:46.640Z,991.51
2018-10-03T02:00:46.758Z,991.55
2018-10-03T02:01:46.921Z,991.62
2018-10-03T02:02:47.056Z,991.61
2018-10-03T02:03:47.171Z,991.61
2018-10-03T02:04:47.317Z,991.56
2018-10-03T02:05:47.463Z,991.56
2018-10-03T02:06:47.595Z,991.51
2018-10-03T02:07:47.754Z,991.55
2018-10-03T02:08:47.887Z,991.60
2018-10-03T02:09:48.026Z,991.60
2018-10-03T02:10:48.181Z,991.56
2018-10-03T02:11:48.301Z,991.57
2018-10-03T02:12:48.449Z,991.60
2018-10-03T02:13:48.620Z,991.59
2018-10-03T02:14:48.750Z,991.64
2018-10-03T02:15:48.889Z,991.63
2018-10-03T02:16:49.048Z,991.68
2018-10-03T02:17:49.197Z,991.71
2018-10-03T02:18:49.365Z,991.72
2018-10-03T02:19:49.456Z,991.76
2018-10-03T02:20:49.614Z,991.73
2018-10-03T02:21:49.768Z,991.74
2018-10-03T02:22:49.926Z,991.75
2018-10-03T02:23:50.084Z,991.70
2018-10-03T02:24:50.212Z,991.73
2018-10-03T02:25:50.370Z,991.75
2018-10-03T02:26:50.525Z,991.78
2018-10-03T02:27:50.645Z,991.81
2018-10-03T02:28:50.776Z,991.81
2018-10-03T02:29:50.945Z,991.83
2018-10-03T02:30:51.048Z,991.85
2018-10-03T02:31:51.190Z,991.86
2018-10-03T02:32:51.324Z,991.84
2018-10-03T02:33:51.478Z,991.85
2018-10-03T02:34:51.634Z,991.86
2018-10-03T02:35:51.757Z,991.87
2018-10-03T02:36:51.914Z,991.90
2018-10-03T02:37:52.050Z,991.85
2018-10-03T02:38:52.206Z,991.82
2018-10-03T02:39:52.352Z,991.86
2018-10-03T02:40:52.496Z,991.87
2018-10-03T02:41:52.604Z,991.86
2018-10-03T02:42:52.775Z,991.84
2018-10-03T02:43:52.895Z,991.86
2018-10-03T02:44:53.039Z,991.88
2018-10-03T02:45:53.170Z,991.88
2018-10-03T02:46:53.345Z,991.86
2018-10-03T02:47:53.459Z,991.87
2018-10-03T02:48:53.612Z,991.87
2018-10-03T02:49:53.754Z,991.85
2018-10-03T02:50:53.918Z,991.86
2018-10-03T02:51:54.046Z,991.85
2018-10-03T02:52:54.193Z,991.90
2018-10-03T02:53:54.346Z,991.87
2018-10-03T02:54:54.504Z,991.92
2018-10-03T02:55:54.642Z,991.91
2018-10-03T02:56:54.781Z,991.98
2018-10-03T02:57:54.951Z,992.00
2018-10-03T02:58:55.092Z,992.06
2018-10-03T02:59:55.214Z,992.05
2018-10-03T03:00:55.352Z,992.04
2018-10-03T03:01:55.543Z,992.06
2018-10-03T03:02:55.652Z,992.04
2018-10-03T03:03:55.824Z,992.05
2018-10-03T03:04:55.989Z,992.08
2018-10-03T03:05:56.117Z,992.09
2018-10-03T03:06:56.247Z,992.10
2018-10-03T03:07:56.377Z,992.05
2018-10-03T03:08:56.571Z,992.04
2018-10-03T03:09:56.680Z,992.06
2018-10-03T03:10:56.814Z,992.08
2018-10-03T03:11:56.976Z,992.08
2018-10-03T03:12:57.109Z,992.14
2018-10-03T03:13:57.251Z,992.07
2018-10-03T03:14:57.396Z,992.04
2018-10-03T03:15:57.538Z,992.08
2018-10-03T03:16:57.677Z,992.11
2018-10-03T03:17:57.828Z,992.14
2018-10-03T03:18:57.996Z,992.18
2018-10-03T03:19:58.115Z,992.23
2018-10-03T03:20:58.279Z,992.22
2018-10-03T03:21:58.404Z,992.27
2018-10-03T03:22:58.529Z,992.29
2018-10-03T03:23:58.684Z,992.34
2018-10-03T03:24:58.826Z,992.38
2018-10-03T03:25:58.968Z,992.37
2018-10-03T03:26:59.104Z,992.43
2018-10-03T03:27:59.254Z,992.47
2018-10-03T03:28:59.399Z,992.49
2018-10-03T03:29:59.545Z,992.44
2018-10-03T03:30:59.696Z,992.39
2018-10-03T03:31:59.843Z,992.39
2018-10-03T03:32:59.996Z,992.46
2018-10-03T03:34:00.112Z,992.47
2018-10-03T03:35:00.243Z,992.45
2018-10-03T03:36:00.378Z,992.49
2018-10-03T03:37:00.531Z,992.47
2018-10-03T03:38:00.674Z,992.42
2018-10-03T03:39:00.819Z,992.45
2018-10-03T03:40:00.963Z,992.41
2018-10-03T03:41:01.097Z,992.43
2018-10-03T03:42:01.249Z,992.47
2018-10-03T03:43:03.235Z,992.50
2018-10-03T03:44:01.507Z,992.48
2018-10-03T03:45:01.645Z,992.47
2018-10-03T03:46:01.820Z,992.41
2018-10-03T03:47:01.941Z,992.44
2018-10-03T03:48:02.124Z,992.44
2018-10-03T03:49:02.255Z,992.46
2018-10-03T03:50:02.389Z,992.43
2018-10-03T03:51:02.564Z,992.43
2018-10-03T03:52:02.667Z,992.42
2018-10-03T03:53:02.794Z,992.46
2018-10-03T03:54:02.923Z,992.42
2018-10-03T03:55:03.063Z,992.47
2018-10-03T03:56:03.200Z,992.45
2018-10-03T03:57:03.338Z,992.47
2018-10-03T03:58:03.514Z,992.49
2018-10-03T03:59:03.717Z,992.51
2018-10-03T04:00:03.845Z,992.53
2018-10-03T04:01:03.935Z,992.54
2018-10-03T04:02:04.108Z,992.51
2018-10-03T04:03:04.249Z,992.55
2018-10-03T04:04:04.396Z,992.57
2018-10-03T04:05:04.527Z,992.63
2018-10-03T04:06:04.664Z,992.63
2018-10-03T04:07:04.827Z,992.62
2018-10-03T04:08:04.946Z,992.61
2018-10-03T04:09:05.128Z,992.66
2018-10-03T04:10:05.267Z,992.62
2018-10-03T04:11:05.383Z,992.60
2018-10-03T04:12:05.523Z,992.62
2018-10-03T04:13:05.696Z,992.55
2018-10-03T04:14:05.808Z,992.58
2018-10-03T04:15:05.952Z,992.58
2018-10-03T04:16:06.105Z,992.52
2018-10-03T04:17:06.282Z,992.52
2018-10-03T04:18:06.405Z,992.53
2018-10-03T04:19:06.510Z,992.51
2018-10-03T04:20:06.718Z,992.49
2018-10-03T04:21:06.844Z,992.53
2018-10-03T04:22:06.988Z,992.53
2018-10-03T04:23:07.130Z,992.55
2018-10-03T04:24:07.260Z,992.53
2018-10-03T04:25:07.405Z,992.52
2018-10-03T04:26:07.540Z,992.55
2018-10-03T04:27:07.695Z,992.54
2018-10-03T04:28:07.825Z,992.59
2018-10-03T04:29:07.960Z,992.57
2018-10-03T04:30:08.101Z,992.62
2018-10-03T04:31:08.252Z,992.60
2018-10-03T04:32:08.395Z,992.59
2018-10-03T04:33:08.551Z,992.55
2018-10-03T04:34:08.725Z,992.61
2018-10-03T04:35:08.820Z,992.57
2018-10-03T04:36:08.960Z,992.59
2018-10-03T04:37:09.134Z,992.65
2018-10-03T04:38:09.246Z,992.73
2018-10-03T04:39:09.412Z,992.76
2018-10-03T04:40:09.524Z,992.80
2018-10-03T04:41:09.662Z,992.79
2018-10-03T04:42:09.842Z,992.79
2018-10-03T04:43:09.966Z,992.81
2018-10-03T04:44:10.123Z,992.82
2018-10-03T04:45:10.231Z,992.82
2018-10-03T04:46:10.381Z,992.89
2018-10-03T04:47:10.542Z,992.90
2018-10-03T04:48:10.653Z,992.90
2018-10-03T04:49:10.867Z,992.94
2018-10-03T04:50:10.937Z,992.94
2018-10-03T04:51:11.100Z,992.94
2018-10-03T04:52:11.274Z,993.00
2018-10-03T04:53:11.404Z,993.01
2018-10-03T04:54:11.540Z,993.03
2018-10-03T04:55:11.699Z,992.98
2018-10-03T04:56:11.810Z,992.96
2018-10-03T04:57:12.004Z,993.01
2018-10-03T04:58:12.105Z,993.01
2018-10-03T04:59:12.247Z,992.98
2018-10-03T05:00:12.372Z,993.03
2018-10-03T05:01:12.539Z,993.06
2018-10-03T05:02:12.654Z,993.06
2018-10-03T05:03:12.799Z,993.04
2018-10-03T05:04:12.956Z,993.08
2018-10-03T05:05:13.094Z,993.10
2018-10-03T05:06:13.252Z,993.11
2018-10-03T05:07:13.401Z,993.13
2018-10-03T05:08:13.543Z,993.11
2018-10-03T05:09:13.703Z,993.09
2018-10-03T05:10:13.833Z,993.17
2018-10-03T05:11:14.016Z,993.15
2018-10-03T05:12:14.147Z,993.12
2018-10-03T05:13:14.288Z,993.14
2018-10-03T05:14:14.403Z,993.18
2018-10-03T05:15:14.543Z,993.15
2018-10-03T05:16:14.680Z,993.13
2018-10-03T05:17:14.825Z,993.14
2018-10-03T05:18:14.964Z,993.12
2018-10-03T05:19:15.139Z,993.11
2018-10-03T05:20:15.261Z,993.10
2018-10-03T05:21:15.442Z,993.08
2018-10-03T05:22:15.550Z,993.10
2018-10-03T05:23:15.710Z,993.09
2018-10-03T05:24:15.862Z,993.08
2018-10-03T05:25:15.984Z,993.11
2018-10-03T05:26:16.108Z,993.12
2018-10-03T05:27:16.253Z,993.18
2018-10-03T05:28:16.422Z,993.19
2018-10-03T05:29:16.559Z,993.22
2018-10-03T05:30:16.699Z,993.26
2018-10-03T05:31:16.850Z,993.28
2018-10-03T05:32:16.994Z,993.32
2018-10-03T05:33:17.199Z,993.35
2018-10-03T05:34:17.279Z,993.37
2018-10-03T05:35:17.425Z,993.35
2018-10-03T05:36:17.560Z,993.36
2018-10-03T05:37:17.746Z,993.33
2018-10-03T05:38:17.841Z,993.31
2018-10-03T05:39:17.975Z,993.41
2018-10-03T05:40:18.115Z,993.40
2018-10-03T05:41:18.264Z,993.42
2018-10-03T05:42:18.418Z,993.46
2018-10-03T05:43:18.555Z,993.51
2018-10-03T05:44:18.698Z,993.50
2018-10-03T05:45:18.862Z,993.53
2018-10-03T05:46:18.973Z,993.51
2018-10-03T05:47:19.135Z,993.54
2018-10-03T05:48:19.332Z,993.55
2018-10-03T05:49:19.447Z,993.48
2018-10-03T05:50:19.553Z,993.53
2018-10-03T05:51:19.695Z,993.48
2018-10-03T05:52:19.847Z,993.51
2018-10-03T05:53:19.983Z,993.52
2018-10-03T05:54:20.127Z,993.56
2018-10-03T05:55:20.260Z,993.62
2018-10-03T05:56:20.416Z,993.59
2018-10-03T05:57:20.557Z,993.60
2018-10-03T05:58:20.690Z,993.60
2018-10-03T05:59:20.840Z,993.63
2018-10-03T06:00:20.989Z,993.60
2018-10-03T06:01:21.133Z,993.61
2018-10-03T06:02:21.277Z,993.62
2018-10-03T06:03:21.429Z,993.68
2018-10-03T06:04:21.579Z,993.72
2018-10-03T06:05:21.718Z,993.74
2018-10-03T06:06:21.878Z,993.74
2018-10-03T06:07:22.012Z,993.73
2018-10-03T06:08:22.163Z,993.75
2018-10-03T06:09:22.306Z,993.72
2018-10-03T06:10:22.453Z,993.72
2018-10-03T06:11:22.602Z,993.73
2018-10-03T06:12:22.750Z,993.72
2018-10-03T06:13:22.903Z,993.69
2018-10-03T06:14:23.045Z,993.69
2018-10-03T06:15:23.195Z,993.68
2018-10-03T06:16:23.342Z,993.69
2018-10-03T06:17:23.492Z,993.68
2018-10-03T06:18:23.640Z,993.73
2018-10-03T06:19:23.788Z,993.72
2018-10-03T06:20:23.937Z,993.76
2018-10-03T06:21:24.087Z,993.79
2018-10-03T06:22:24.236Z,993.84
2018-10-03T06:23:24.387Z,993.84
2018-10-03T06:24:24.534Z,993.86
2018-10-03T06:25:24.683Z,993.87
2018-10-03T06:26:24.835Z,993.90
2018-10-03T06:27:24.982Z,993.88
2018-10-03T06:28:25.201Z,993.91
2018-10-03T06:29:25.279Z,993.98
2018-10-03T06:30:25.433Z,993.99
2018-10-03T06:31:25.584Z,994.02
2018-10-03T06:32:25.736Z,994.02
2018-10-03T06:33:25.891Z,994.08
2018-10-03T06:34:26.031Z,994.07
2018-10-03T06:35:26.182Z,994.08
2018-10-03T06:36:26.333Z,994.07
2018-10-03T06:37:26.480Z,994.12
2018-10-03T06:38:26.631Z,994.14
2018-10-03T06:39:26.831Z,994.11
2018-10-03T06:40:26.965Z,994.12
2018-10-03T06:41:27.109Z,994.14
2018-10-03T06:42:27.235Z,994.15
2018-10-03T06:43:27.385Z,994.18
2018-10-03T06:44:27.534Z,994.16
2018-10-03T06:45:27.693Z,994.18
2018-10-03T06:46:27.833Z,994.23
2018-10-03T06:47:27.992Z,994.21
2018-10-03T06:48:28.133Z,994.26
2018-10-03T06:49:28.279Z,994.27
2018-10-03T06:50:28.430Z,994.35
2018-10-03T06:51:28.581Z,994.32
2018-10-03T06:52:28.732Z,994.33
2018-10-03T06:53:28.884Z,994.38
2018-10-03T06:54:29.036Z,994.37
2018-10-03T06:55:29.185Z,994.37
2018-10-03T06:56:29.341Z,994.40
2018-10-03T06:57:29.482Z,994.38
2018-10-03T06:58:29.631Z,994.40
2018-10-03T06:59:29.783Z,994.40
2018-10-03T07:00:29.932Z,994.38
2018-10-03T07:01:30.083Z,994.42
2018-10-03T07:02:30.231Z,994.40
2018-10-03T07:03:30.379Z,994.46
2018-10-03T07:04:30.528Z,994.47
2018-10-03T07:05:30.677Z,994.47
2018-10-03T07:06:30.827Z,994.46
2018-10-03T07:07:30.976Z,994.54
2018-10-03T07:08:31.124Z,994.58
2018-10-03T07:09:31.273Z,994.59
2018-10-03T07:10:31.428Z,994.60
2018-10-03T07:11:31.574Z,994.62
2018-10-03T07:12:31.726Z,994.64
2018-10-03T07:13:31.876Z,994.65
2018-10-03T07:14:32.023Z,994.69
2018-10-03T07:15:32.177Z,994.69
2018-10-03T07:16:32.328Z,994.68
2018-10-03T07:17:32.482Z,994.74
2018-10-03T07:18:32.624Z,994.78
2018-10-03T07:19:32.772Z,994.83
2018-10-03T07:20:32.922Z,994.84
2018-10-03T07:21:33.074Z,994.86
2018-10-03T07:22:33.234Z,994.90
2018-10-03T07:23:33.378Z,994.84
2018-10-03T07:24:33.527Z,994.89
2018-10-03T07:25:33.675Z,994.90
2018-10-03T07:26:33.827Z,994.88
2018-10-03T07:27:33.978Z,994.90
2018-10-03T07:28:34.128Z,994.95
2018-10-03T07:29:34.278Z,994.97
2018-10-03T07:30:34.433Z,994.96
2018-10-03T07:31:34.589Z,995.00
2018-10-03T07:32:34.754Z,995.03
2018-10-03T07:33:34.909Z,995.03
2018-10-03T07:34:35.028Z,995.08
2018-10-03T07:35:35.180Z,995.03
2018-10-03T07:36:35.328Z,995.08
2018-10-03T07:37:35.481Z,995.08
2018-10-03T07:38:35.626Z,995.07
2018-10-03T07:39:35.790Z,995.05
2018-10-03T07:40:35.920Z,995.09
2018-10-03T07:41:36.069Z,995.06
2018-10-03T07:42:36.223Z,995.04
2018-10-03T07:43:36.412Z,995.02
2018-10-03T07:44:36.521Z,995.06
2018-10-03T07:45:36.679Z,995.10
2018-10-03T07:46:36.847Z,995.09
2018-10-03T07:47:37.008Z,995.06
2018-10-03T07:48:37.114Z,995.10
2018-10-03T07:49:37.264Z,995.10
2018-10-03T07:50:37.420Z,995.14
2018-10-03T07:51:37.566Z,995.15
2018-10-03T07:52:37.718Z,995.17
2018-10-03T07:53:37.882Z,995.19
2018-10-03T07:54:38.023Z,995.16
2018-10-03T07:55:38.175Z,995.21
2018-10-03T07:56:38.342Z,995.21
2018-10-03T07:57:38.473Z,995.22
2018-10-03T07:58:38.625Z,995.17
2018-10-03T07:59:38.773Z,995.19
2018-10-03T08:00:38.925Z,995.26
2018-10-03T08:01:39.075Z,995.25
2018-10-03T08:02:39.230Z,995.24
2018-10-03T08:03:39.378Z,995.24
2018-10-03T08:04:39.532Z,995.27
2018-10-03T08:05:39.680Z,995.31
2018-10-03T08:06:39.838Z,995.27
2018-10-03T08:07:39.989Z,995.27
2018-10-03T08:08:40.142Z,995.28
2018-10-03T08:09:40.291Z,995.32
2018-10-03T08:10:40.449Z,995.32
2018-10-03T08:11:40.601Z,995.34
2018-10-03T08:12:40.750Z,995.36
2018-10-03T08:13:40.909Z,995.38
2018-10-03T08:14:41.057Z,995.43
2018-10-03T08:15:41.217Z,995.45
2018-10-03T08:16:41.385Z,995.50
2018-10-03T08:17:41.536Z,995.55
2018-10-03T08:18:41.689Z,995.60
2018-10-03T08:19:41.849Z,995.53
2018-10-03T08:20:42.004Z,995.59
2018-10-03T08:21:42.159Z,995.63
2018-10-03T08:22:42.310Z,995.67
2018-10-03T08:23:42.461Z,995.66
2018-10-03T08:24:42.677Z,995.67
2018-10-03T08:25:42.767Z,995.68
2018-10-03T08:26:42.928Z,995.72
2018-10-03T08:27:43.087Z,995.70
2018-10-03T08:28:43.243Z,995.71
2018-10-03T08:29:43.403Z,995.73
2018-10-03T08:30:43.559Z,995.73
2018-10-03T08:31:43.703Z,995.75
2018-10-03T08:32:43.989Z,995.74
2018-10-03T08:33:44.007Z,995.74
2018-10-03T08:34:44.159Z,995.72
2018-10-03T08:35:44.308Z,995.75
2018-10-03T08:36:44.464Z,995.74
2018-10-03T08:37:44.633Z,995.83
2018-10-03T08:38:44.825Z,995.82
2018-10-03T08:39:44.927Z,995.84
2018-10-03T08:40:45.087Z,995.81
2018-10-03T08:41:45.245Z,995.83
2018-10-03T08:42:45.395Z,995.82
2018-10-03T08:43:45.567Z,995.85
2018-10-03T08:44:45.725Z,995.80
2018-10-03T08:45:45.878Z,995.80
2018-10-03T08:46:46.063Z,995.76
2018-10-03T08:47:46.226Z,995.79
2018-10-03T08:48:46.381Z,995.79
2018-10-03T08:49:46.536Z,995.75
2018-10-03T08:50:46.693Z,995.81
2018-10-03T08:51:46.857Z,995.83
2018-10-03T08:52:46.995Z,995.85
2018-10-03T08:53:47.150Z,995.90
2018-10-03T08:54:47.303Z,995.91
2018-10-03T08:55:47.456Z,995.88
2018-10-03T08:56:47.607Z,995.88
2018-10-03T08:57:47.756Z,995.98
2018-10-03T08:58:47.908Z,996.02
2018-10-03T08:59:48.070Z,996.00
2018-10-03T09:00:48.221Z,996.01
2018-10-03T09:01:48.372Z,996.03
2018-10-03T09:02:48.523Z,996.07
2018-10-03T09:03:48.678Z,996.06
2018-10-03T09:04:48.826Z,996.09
2018-10-03T09:05:49.008Z,996.11
2018-10-03T09:06:49.163Z,996.09
2018-10-03T09:07:49.314Z,996.09
2018-10-03T09:08:49.467Z,996.07
2018-10-03T09:09:49.618Z,996.05
2018-10-03T09:10:49.768Z,996.08
2018-10-03T09:11:49.922Z,996.07
2018-10-03T09:12:50.074Z,996.04
2018-10-03T09:13:50.229Z,996.08
2018-10-03T09:14:50.394Z,996.01
2018-10-03T09:15:50.561Z,996.06
2018-10-03T09:16:50.831Z,996.02
2018-10-03T09:17:50.874Z,996.02
2018-10-03T09:18:51.048Z,996.10
2018-10-03T09:19:51.215Z,996.08
2018-10-03T09:20:51.375Z,996.06
2018-10-03T09:21:51.593Z,996.10
2018-10-03T09:22:51.676Z,996.07
2018-10-03T09:23:51.829Z,996.11
2018-10-03T09:24:51.978Z,996.16
2018-10-03T09:25:52.132Z,996.09
2018-10-03T09:26:52.284Z,996.15
2018-10-03T09:27:52.438Z,996.20
2018-10-03T09:28:52.589Z,996.26
2018-10-03T09:29:52.740Z,996.26
2018-10-03T09:30:52.895Z,996.32
2018-10-03T09:31:53.046Z,996.28
2018-10-03T09:32:53.200Z,996.30
2018-10-03T09:33:53.352Z,996.38
2018-10-03T09:34:53.502Z,996.42
2018-10-03T09:35:53.654Z,996.45
2018-10-03T09:36:53.806Z,996.41
2018-10-03T09:37:53.957Z,996.41
2018-10-03T09:38:54.113Z,996.40
2018-10-03T09:39:54.261Z,996.42
2018-10-03T09:40:54.412Z,996.45
2018-10-03T09:41:54.565Z,996.49
2018-10-03T09:42:54.718Z,996.42
2018-10-03T09:43:54.872Z,996.42
2018-10-03T09:44:55.023Z,996.46
2018-10-03T09:45:55.177Z,996.48
2018-10-03T09:46:55.353Z,996.48
2018-10-03T09:47:55.510Z,996.51
2018-10-03T09:48:55.670Z,996.54
2018-10-03T09:49:55.829Z,996.58
2018-10-03T09:50:56.018Z,996.62
2018-10-03T09:51:56.180Z,996.66
2018-10-03T09:52:56.339Z,996.71
2018-10-03T09:53:56.488Z,996.73
2018-10-03T09:54:56.639Z,996.71
2018-10-03T09:55:56.793Z,996.73
2018-10-03T09:56:56.945Z,996.73
2018-10-03T09:57:57.097Z,996.78
2018-10-03T09:58:57.273Z,996.76
2018-10-03T09:59:57.429Z,996.80
2018-10-03T10:00:57.673Z,996.88
2018-10-03T10:01:57.731Z,996.83
2018-10-03T10:02:57.884Z,996.84
2018-10-03T10:03:58.038Z,996.78
2018-10-03T10:04:58.193Z,996.81
2018-10-03T10:05:58.349Z,996.79
2018-10-03T10:06:58.501Z,996.80
2018-10-03T10:07:58.652Z,996.81
2018-10-03T10:08:58.806Z,996.73
2018-10-03T10:09:58.961Z,996.89
2018-10-03T10:10:59.123Z,996.87
2018-10-03T10:11:59.265Z,996.74
2018-10-03T10:12:59.417Z,996.85
2018-10-03T10:13:59.572Z,996.83
2018-10-03T10:14:59.723Z,996.85
2018-10-03T10:15:59.874Z,996.87
2018-10-03T10:17:00.025Z,996.90
2018-10-03T10:18:00.177Z,996.84
2018-10-03T10:19:00.337Z,997.00
2018-10-03T10:20:00.488Z,996.94
2018-10-03T10:21:00.642Z,996.93
2018-10-03T10:22:00.794Z,997.00
2018-10-03T10:23:00.949Z,997.07
2018-10-03T10:24:01.101Z,996.96
2018-10-03T10:25:01.254Z,996.96
2018-10-03T10:26:01.410Z,996.94
2018-10-03T10:27:01.560Z,997.03
2018-10-03T10:28:01.713Z,997.01
2018-10-03T10:29:01.872Z,997.04
2018-10-03T10:30:02.021Z,997.07
2018-10-03T10:31:02.181Z,997.05
2018-10-03T10:32:02.352Z,997.02
2018-10-03T10:33:02.545Z,997.07
2018-10-03T10:34:02.639Z,996.98
2018-10-03T10:35:02.789Z,997.10
2018-10-03T10:36:02.944Z,997.03
2018-10-03T10:37:03.105Z,997.02
2018-10-03T10:38:03.252Z,997.04
2018-10-03T10:39:03.401Z,997.09
2018-10-03T10:40:03.583Z,997.14
2018-10-03T10:41:03.731Z,997.17
2018-10-03T10:42:03.861Z,997.18
2018-10-03T10:43:04.014Z,997.14
2018-10-03T10:44:04.167Z,997.15
2018-10-03T10:45:04.318Z,997.19
2018-10-03T10:46:04.474Z,997.18
2018-10-03T10:47:04.626Z,997.13
2018-10-03T10:48:04.779Z,997.21
2018-10-03T10:49:04.930Z,997.26
2018-10-03T10:50:05.093Z,997.25
2018-10-03T10:51:05.238Z,997.24
2018-10-03T10:52:05.396Z,997.39
2018-10-03T10:53:05.548Z,997.37
2018-10-03T10:54:05.700Z,997.33
2018-10-03T10:55:05.853Z,997.33
2018-10-03T10:56:06.008Z,997.30
2018-10-03T10:57:06.160Z,997.39
2018-10-03T10:58:06.317Z,997.37
2018-10-03T10:59:06.466Z,997.44
2018-10-03T11:00:06.622Z,997.39
2018-10-03T11:01:06.791Z,997.38
2018-10-03T11:02:06.954Z,997.36
2018-10-03T11:03:07.099Z,997.35
2018-10-03T11:04:07.254Z,997.33
2018-10-03T11:05:07.407Z,997.35
2018-10-03T11:06:07.591Z,997.37
2018-10-03T11:07:07.711Z,997.39
2018-10-03T11:08:07.864Z,997.42
2018-10-03T11:09:08.016Z,997.46
2018-10-03T11:10:08.171Z,997.39
2018-10-03T11:11:08.325Z,997.48
2018-10-03T11:12:08.474Z,997.45
2018-10-03T11:13:08.634Z,997.42
2018-10-03T11:14:08.790Z,997.40
2018-10-03T11:15:08.947Z,997.41
2018-10-03T11:16:09.100Z,997.40
2018-10-03T11:17:09.254Z,997.35
2018-10-03T11:18:09.406Z,997.35
2018-10-03T11:19:09.561Z,997.31
2018-10-03T11:20:09.714Z,997.31
2018-10-03T11:21:09.876Z,997.30
2018-10-03T11:22:10.029Z,997.37
2018-10-03T11:23:10.180Z,997.38
2018-10-03T11:24:10.410Z,997.40
2018-10-03T11:25:10.488Z,997.42
2018-10-03T11:26:10.639Z,997.31
2018-10-03T11:27:10.790Z,997.33
2018-10-03T11:28:10.945Z,997.31
2018-10-03T11:29:11.104Z,997.36
2018-10-03T11:30:11.268Z,997.34
2018-10-03T11:31:11.424Z,997.28
2018-10-03T11:32:11.626Z,997.29
2018-10-03T11:33:11.729Z,997.26
2018-10-03T11:34:11.881Z,997.26
2018-10-03T11:35:12.042Z,997.19
2018-10-03T11:36:12.206Z,997.22
2018-10-03T11:37:12.352Z,997.22
2018-10-03T11:38:12.527Z,997.20
2018-10-03T11:39:12.661Z,997.22
2018-10-03T11:40:12.818Z,997.25
2018-10-03T11:41:12.970Z,997.31
2018-10-03T11:42:13.119Z,997.26
2018-10-03T11:43:13.273Z,997.33
2018-10-03T11:44:13.435Z,997.40
2018-10-03T11:45:13.592Z,997.41
2018-10-03T11:46:13.743Z,997.30
2018-10-03T11:47:13.952Z,997.37
2018-10-03T11:48:13.990Z,997.34
2018-10-03T11:49:14.147Z,997.33
2018-10-03T11:50:14.303Z,997.35
2018-10-03T11:51:14.459Z,997.36
2018-10-03T11:52:14.614Z,997.36
2018-10-03T11:53:14.767Z,997.35
2018-10-03T11:54:14.948Z,997.29
2018-10-03T11:55:15.112Z,997.30
2018-10-03T11:56:15.271Z,997.34
2018-10-03T11:57:15.436Z,997.40
2018-10-03T11:58:15.601Z,997.35
2018-10-03T11:59:15.765Z,997.28
2018-10-03T12:00:15.925Z,997.24
2018-10-03T12:01:16.073Z,997.18
2018-10-03T12:02:16.226Z,997.31
2018-10-03T12:03:16.461Z,997.37
2018-10-03T12:04:16.536Z,997.23
2018-10-03T12:05:16.696Z,997.28
2018-10-03T12:06:16.849Z,997.29
2018-10-03T12:07:17.000Z,997.31
2018-10-03T12:08:17.153Z,997.33
2018-10-03T12:09:17.320Z,997.36
2018-10-03T12:10:17.461Z,997.36
2018-10-03T12:11:17.617Z,997.37
2018-10-03T12:12:17.770Z,997.32
2018-10-03T12:13:17.922Z,997.32
2018-10-03T12:14:18.079Z,997.36
2018-10-03T12:15:18.234Z,997.35
2018-10-03T12:16:18.385Z,997.38
2018-10-03T12:17:18.556Z,997.32
2018-10-03T12:18:18.715Z,997.34
2018-10-03T12:19:18.866Z,997.25
2018-10-03T12:20:19.017Z,997.37
2018-10-03T12:21:19.171Z,997.30
2018-10-03T12:22:19.327Z,997.28
2018-10-03T12:23:19.481Z,997.31
2018-10-03T12:24:19.635Z,997.35
2018-10-03T12:25:19.833Z,997.40
2018-10-03T12:26:19.944Z,997.42
2018-10-03T12:27:20.099Z,997.47
2018-10-03T12:28:20.251Z,997.44
2018-10-03T12:29:20.405Z,997.42
2018-10-03T12:30:20.558Z,997.42